sensor_id;sensor_type;location;lat;lon;timestamp;temperature;humidity
15409;DHT22;7803;48.130;13.788;2022-07-03T06:20:54;23.60;95.90
15409;DHT22;7803;48.130;13.788;2022-07-03T06:23:56;23.60;96.20
15409;DHT22;7803;48.130;13.788;2022-07-03T06:26:58;23.60;96.10
15409;DHT22;7803;48.130;13.788;2022-07-03T06:30:00;23.60;96.20
15409;DHT22;7803;48.130;13.788;2022-07-03T06:33:20;23.60;96.30
15409;DHT22;7803;48.130;13.788;2022-07-03T06:36:26;23.60;96.40
15409;DHT22;7803;48.130;13.788;2022-07-03T06:39:29;23.60;96.60
15409;DHT22;7803;48.130;13.788;2022-07-03T06:42:32;23.60;96.80
15409;DHT22;7803;48.130;13.788;2022-07-03T06:45:40;23.60;97.00
15409;DHT22;7803;48.130;13.788;2022-07-03T06:48:42;23.60;97.20
15409;DHT22;7803;48.130;13.788;2022-07-03T06:51:46;23.60;97.00
15409;DHT22;7803;48.130;13.788;2022-07-03T06:54:48;23.50;97.00
15409;DHT22;7803;48.130;13.788;2022-07-03T06:57:51;23.50;97.00
15409;DHT22;7803;48.130;13.788;2022-07-03T07:00:53;23.50;97.30
15409;DHT22;7803;48.130;13.788;2022-07-03T07:03:55;23.50;97.40
15409;DHT22;7803;48.130;13.788;2022-07-03T07:07:00;23.50;97.50
15409;DHT22;7803;48.130;13.788;2022-07-03T07:10:03;23.50;97.60
15409;DHT22;7803;48.130;13.788;2022-07-03T07:13:06;23.50;97.80
15409;DHT22;7803;48.130;13.788;2022-07-03T07:16:09;23.50;97.80
15409;DHT22;7803;48.130;13.788;2022-07-03T07:19:14;23.50;97.80
15409;DHT22;7803;48.130;13.788;2022-07-03T07:22:19;23.50;98.00
15409;DHT22;7803;48.130;13.788;2022-07-03T07:25:23;23.50;98.00
15409;DHT22;7803;48.130;13.788;2022-07-03T07:28:25;23.50;98.00
15409;DHT22;7803;48.130;13.788;2022-07-03T07:31:41;23.50;98.10
15409;DHT22;7803;48.130;13.788;2022-07-03T07:34:57;23.50;98.20
15409;DHT22;7803;48.130;13.788;2022-07-03T07:38:04;23.50;98.20
15409;DHT22;7803;48.130;13.788;2022-07-03T07:41:14;23.50;98.50
15409;DHT22;7803;48.130;13.788;2022-07-03T07:44:17;23.50;99.10
15409;DHT22;7803;48.130;13.788;2022-07-03T07:47:19;23.50;99.20
15409;DHT22;7803;48.130;13.788;2022-07-03T07:50:23;23.50;99.20
15409;DHT22;7803;48.130;13.788;2022-07-03T07:53:27;23.50;99.90
15409;DHT22;7803;48.130;13.788;2022-07-03T07:56:43;23.60;99.90
15409;DHT22;7803;48.130;13.788;2022-07-03T07:59:46;23.60;99.90
15409;DHT22;7803;48.130;13.788;2022-07-03T08:02:48;23.60;99.90
15409;DHT22;7803;48.130;13.788;2022-07-03T08:06:09;23.50;99.90
15409;DHT22;7803;48.130;13.788;2022-07-03T08:09:13;23.60;99.90
15409;DHT22;7803;48.130;13.788;2022-07-03T08:12:15;23.60;99.90
15409;DHT22;7803;48.130;13.788;2022-07-03T08:15:17;23.60;99.90
15409;DHT22;7803;48.130;13.788;2022-07-03T08:18:41;23.60;99.90
15409;DHT22;7803;48.130;13.788;2022-07-03T08:22:00;23.60;99.90
15409;DHT22;7803;48.130;13.788;2022-07-03T08:25:07;23.60;99.90
15409;DHT22;7803;48.130;13.788;2022-07-03T08:28:13;23.60;99.90
15409;DHT22;7803;48.130;13.788;2022-07-03T08:31:16;23.60;99.90
15409;DHT22;7803;48.130;13.788;2022-07-03T08:34:19;23.60;99.90
15409;DHT22;7803;48.130;13.788;2022-07-03T08:37:21;23.60;99.90
15409;DHT22;7803;48.130;13.788;2022-07-03T08:40:26;23.60;99.90
15409;DHT22;7803;48.130;13.788;2022-07-03T08:43:42;23.70;99.90
15409;DHT22;7803;48.130;13.788;2022-07-03T08:46:45;23.70;99.90
15409;DHT22;7803;48.130;13.788;2022-07-03T08:49:49;23.70;99.90
15409;DHT22;7803;48.130;13.788;2022-07-03T08:52:59;23.70;99.90
15409;DHT22;7803;48.130;13.788;2022-07-03T08:56:10;23.80;99.90
15409;DHT22;7803;48.130;13.788;2022-07-03T08:59:13;23.80;99.90
15409;DHT22;7803;48.130;13.788;2022-07-03T09:02:25;23.90;99.90
15409;DHT22;7803;48.130;13.788;2022-07-03T09:05:38;23.90;99.90
15409;DHT22;7803;48.130;13.788;2022-07-03T09:08:51;23.90;99.90
15409;DHT22;7803;48.130;13.788;2022-07-03T09:15:53;23.90;99.90
15409;DHT22;7803;48.130;13.788;2022-07-03T09:19:09;23.90;99.90
15409;DHT22;7803;48.130;13.788;2022-07-03T09:22:19;24.00;99.90
15409;DHT22;7803;48.130;13.788;2022-07-03T09:25:22;23.90;99.90
15409;DHT22;7803;48.130;13.788;2022-07-03T09:28:42;23.90;99.90
15409;DHT22;7803;48.130;13.788;2022-07-03T09:31:55;23.90;99.90
15409;DHT22;7803;48.130;13.788;2022-07-03T09:35:15;23.90;99.90
15409;DHT22;7803;48.130;13.788;2022-07-03T09:38:20;23.90;99.90
15409;DHT22;7803;48.130;13.788;2022-07-03T09:41:23;23.90;99.90
15409;DHT22;7803;48.130;13.788;2022-07-03T09:44:43;23.90;99.90
15409;DHT22;7803;48.130;13.788;2022-07-03T09:47:47;23.90;99.90
15409;DHT22;7803;48.130;13.788;2022-07-03T09:50:52;23.90;99.90
15409;DHT22;7803;48.130;13.788;2022-07-03T09:54:21;23.90;99.90
15409;DHT22;7803;48.130;13.788;2022-07-03T09:57:38;23.90;99.90
15409;DHT22;7803;48.130;13.788;2022-07-03T10:00:41;23.90;99.90
15409;DHT22;7803;48.130;13.788;2022-07-03T10:03:45;23.90;99.90
15409;DHT22;7803;48.130;13.788;2022-07-03T10:06:53;23.90;99.90
15409;DHT22;7803;48.130;13.788;2022-07-03T10:09:59;23.90;99.90
15409;DHT22;7803;48.130;13.788;2022-07-03T10:13:02;23.90;99.90
15409;DHT22;7803;48.130;13.788;2022-07-03T10:16:05;23.90;99.90
15409;DHT22;7803;48.130;13.788;2022-07-03T10:19:19;23.90;99.90
15409;DHT22;7803;48.130;13.788;2022-07-03T10:22:23;23.90;99.90
15409;DHT22;7803;48.130;13.788;2022-07-03T10:25:30;23.90;99.90
15409;DHT22;7803;48.130;13.788;2022-07-03T10:28:32;23.90;99.90
15409;DHT22;7803;48.130;13.788;2022-07-03T10:31:37;23.90;99.90
15409;DHT22;7803;48.130;13.788;2022-07-03T10:34:41;23.90;99.90
15409;DHT22;7803;48.130;13.788;2022-07-03T10:37:57;23.90;99.90
15409;DHT22;7803;48.130;13.788;2022-07-03T10:41:05;23.90;99.90
15409;DHT22;7803;48.130;13.788;2022-07-03T10:44:26;23.90;99.90
15409;DHT22;7803;48.130;13.788;2022-07-03T10:47:47;23.90;99.90
15409;DHT22;7803;48.130;13.788;2022-07-03T10:54:49;23.90;99.90
15409;DHT22;7803;48.130;13.788;2022-07-03T10:58:08;23.90;99.90
15409;DHT22;7803;48.130;13.788;2022-07-03T11:01:28;23.90;99.90
15409;DHT22;7803;48.130;13.788;2022-07-03T11:05:04;23.90;99.90
15409;DHT22;7803;48.130;13.788;2022-07-03T11:08:22;23.90;99.90
15409;DHT22;7803;48.130;13.788;2022-07-03T11:15:33;23.90;99.90
15409;DHT22;7803;48.130;13.788;2022-07-03T11:18:36;23.90;99.90
15409;DHT22;7803;48.130;13.788;2022-07-03T11:21:55;23.90;99.90
15409;DHT22;7803;48.130;13.788;2022-07-03T11:25:16;23.90;99.90
15409;DHT22;7803;48.130;13.788;2022-07-03T11:28:50;23.90;99.90
15409;DHT22;7803;48.130;13.788;2022-07-03T11:35:57;23.90;99.90
15409;DHT22;7803;48.130;13.788;2022-07-03T11:39:08;23.90;99.90
15409;DHT22;7803;48.130;13.788;2022-07-03T11:42:25;23.90;99.90
15409;DHT22;7803;48.130;13.788;2022-07-03T11:45:41;23.90;99.90
15409;DHT22;7803;48.130;13.788;2022-07-03T11:49:04;23.90;99.90
15409;DHT22;7803;48.130;13.788;2022-07-03T12:11:11;23.90;99.90
15409;DHT22;7803;48.130;13.788;2022-07-03T12:14:13;23.90;99.90
15409;DHT22;7803;48.130;13.788;2022-07-03T12:17:29;23.90;99.90
15409;DHT22;7803;48.130;13.788;2022-07-03T12:20:45;23.90;99.90
15409;DHT22;7803;48.130;13.788;2022-07-03T12:23:50;23.90;99.90
15409;DHT22;7803;48.130;13.788;2022-07-03T12:50:07;23.90;99.90
15409;DHT22;7803;48.130;13.788;2022-07-03T12:53:27;23.90;99.90
15409;DHT22;7803;48.130;13.788;2022-07-03T12:56:44;23.90;99.90
15409;DHT22;7803;48.130;13.788;2022-07-03T13:00:05;23.90;99.90
15409;DHT22;7803;48.130;13.788;2022-07-03T13:03:29;23.90;99.90
15409;DHT22;7803;48.130;13.788;2022-07-03T13:06:34;23.90;99.90
15409;DHT22;7803;48.130;13.788;2022-07-03T13:09:38;23.90;99.90
15409;DHT22;7803;48.130;13.788;2022-07-03T13:12:56;23.90;99.90
15409;DHT22;7803;48.130;13.788;2022-07-03T13:16:23;23.90;99.90
15409;DHT22;7803;48.130;13.788;2022-07-03T13:19:39;23.90;99.90
15409;DHT22;7803;48.130;13.788;2022-07-03T13:30:32;23.90;99.90
15409;DHT22;7803;48.130;13.788;2022-07-03T13:33:35;23.90;99.90
15409;DHT22;7803;48.130;13.788;2022-07-03T13:36:37;23.90;99.90
15409;DHT22;7803;48.130;13.788;2022-07-03T13:39:39;23.90;99.90
15409;DHT22;7803;48.130;13.788;2022-07-03T13:42:44;23.90;99.90
15409;DHT22;7803;48.130;13.788;2022-07-03T13:46:01;23.90;99.90
15409;DHT22;7803;48.130;13.788;2022-07-03T13:49:03;23.90;99.90
15409;DHT22;7803;48.130;13.788;2022-07-03T13:52:06;23.90;99.90
15409;DHT22;7803;48.130;13.788;2022-07-03T13:55:09;23.90;99.90
15409;DHT22;7803;48.130;13.788;2022-07-03T13:58:12;23.90;99.90
15409;DHT22;7803;48.130;13.788;2022-07-03T14:05:15;23.90;99.90
15409;DHT22;7803;48.130;13.788;2022-07-03T14:08:17;23.90;99.90
15409;DHT22;7803;48.130;13.788;2022-07-03T14:11:34;23.90;99.90
15409;DHT22;7803;48.130;13.788;2022-07-03T14:14:36;23.90;99.90
15409;DHT22;7803;48.130;13.788;2022-07-03T14:17:52;23.90;99.90
15409;DHT22;7803;48.130;13.788;2022-07-03T14:28:27;23.90;99.90
15409;DHT22;7803;48.130;13.788;2022-07-03T14:31:46;24.00;99.90
15409;DHT22;7803;48.130;13.788;2022-07-03T14:35:11;24.00;99.90
15409;DHT22;7803;48.130;13.788;2022-07-03T14:38:15;24.10;99.90
15409;DHT22;7803;48.130;13.788;2022-07-03T14:41:31;24.10;99.90
15409;DHT22;7803;48.130;13.788;2022-07-03T14:44:57;24.20;99.90
15409;DHT22;7803;48.130;13.788;2022-07-03T14:48:13;24.20;99.90
15409;DHT22;7803;48.130;13.788;2022-07-03T14:51:24;24.30;99.90
15409;DHT22;7803;48.130;13.788;2022-07-03T14:54:27;24.30;99.90
15409;DHT22;7803;48.130;13.788;2022-07-03T16:30:34;24.30;99.90
15409;DHT22;7803;48.130;13.788;2022-07-03T16:33:56;24.40;99.90
15409;DHT22;7803;48.130;13.788;2022-07-03T16:37:06;24.30;99.90
15409;DHT22;7803;48.130;13.788;2022-07-03T16:40:11;24.40;99.90
15409;DHT22;7803;48.130;13.788;2022-07-03T16:43:14;24.40;99.90
15409;DHT22;7803;48.130;13.788;2022-07-03T16:46:43;24.40;99.90
15409;DHT22;7803;48.130;13.788;2022-07-03T16:49:46;24.40;99.90
15409;DHT22;7803;48.130;13.788;2022-07-03T16:52:50;24.50;99.90
15409;DHT22;7803;48.130;13.788;2022-07-03T16:55:53;24.50;99.90
15409;DHT22;7803;48.130;13.788;2022-07-03T16:58:56;24.70;99.90
15409;DHT22;7803;48.130;13.788;2022-07-03T17:02:01;24.80;99.90
15409;DHT22;7803;48.130;13.788;2022-07-03T17:05:05;24.80;99.90
15409;DHT22;7803;48.130;13.788;2022-07-03T17:08:08;24.80;99.90
15409;DHT22;7803;48.130;13.788;2022-07-03T17:11:11;24.90;99.90
15409;DHT22;7803;48.130;13.788;2022-07-03T17:14:17;24.90;99.90
15409;DHT22;7803;48.130;13.788;2022-07-03T17:17:21;24.90;99.90
15409;DHT22;7803;48.130;13.788;2022-07-03T17:20:28;24.90;99.90
15409;DHT22;7803;48.130;13.788;2022-07-03T17:23:32;24.90;99.90
15409;DHT22;7803;48.130;13.788;2022-07-03T17:26:41;24.90;99.90
15409;DHT22;7803;48.130;13.788;2022-07-03T17:29:46;24.80;99.90
15409;DHT22;7803;48.130;13.788;2022-07-03T17:32:52;24.80;99.90
